Monday, December 18, 2017, 2:27 PM GMT
Back to Local

CWPE, Point Lepreau, N. B.

Location: , , Canada Lat: 45.067
Local Time: 2:27 PM GMT (14:27 GMT) Lon: -66.467
Time Zone: GMT Elev: 3 ft

Show me the last for .
Show Coded

Time T Td Feel RH Dir Speed Gust Alt SLP Vis Weather Sky Remarks
2017-12-18 14:00 11 4 4 73 340° 3 - - 30.20 0 None
2017-12-18 13:00 8 1 -2 72 340° 6 - - 30.19 0 None
2017-12-18 12:00 8 0 -4 69 330° 7 - - 30.20 0 None
2017-12-18 11:00 6 0 -5 76 340° 6 - - 30.21 0 None
2017-12-18 10:00 7 1 -4 77 330° 6 - - 30.23 0 None
2017-12-18 09:00 7 1 -4 75 310° 7 - - 30.22 0 None
2017-12-18 08:00 8 1 -6 74 320° 9 - - 30.21 0 None
2017-12-18 07:00 8 1 -1 74 320° 5 - - 30.21 0 None
2017-12-18 06:00 9 2 - 72 330° 2 - - 30.21 0 None
2017-12-18 05:00 10 2 -2 66 320° 8 - - 30.22 0 None
2017-12-18 04:00 10 2 3 70 340° 3 - - 30.22 0 None
2017-12-18 03:00 11 1 -1 64 330° 8 - - 30.20 0 None
2017-12-18 02:00 12 2 -7 64 320° 9 20 - 30.20 0 None
2017-12-18 01:00 13 3 -4 63 330° 9 17 - 30.20 0 None
2017-12-18 00:00 15 4 -3 61 330° 10 20 - 30.19 0 None
2017-12-17 23:00 15 3 -2 57 320° 12 20 - 30.17 0 None
2017-12-17 22:00 17 6 5 62 310° 9 - - 30.15 0 None
2017-12-17 21:00 18 2 0 49 310° 12 23 - 30.13 0 None
2017-12-17 20:00 19 2 3 45 300° 10 22 - 30.11 0 None
2017-12-17 19:00 21 3 6 46 300° 10 17 - 30.10 0 None
2017-12-17 18:00 21 2 7 43 300° 10 17 - 30.09 0 None
2017-12-17 17:00 19 2 4 45 300° 12 20 - 30.09 0 None
2017-12-17 16:00 18 2 1 47 310° 12 23 - 30.09 0 None
2017-12-17 15:00 17 2 0 50 320° 12 20 - 30.12 0 None

Support USWX by starting your Amazon purchase here.